sensor_id;sensor_type;location;lat;lon;timestamp;P1;durP1;ratioP1;P2;durP2;ratioP2
3547;SDS011;1788;49.400;11.092;2023-06-22T00:01:25;12.13;;;7.93;;
3547;SDS011;1788;49.400;11.092;2023-06-22T00:03:51;11.67;;;8.03;;
3547;SDS011;1788;49.400;11.092;2023-06-22T00:06:18;11.20;;;7.80;;
3547;SDS011;1788;49.400;11.092;2023-06-22T00:08:44;10.57;;;8.10;;
3547;SDS011;1788;49.400;11.092;2023-06-22T00:11:11;11.63;;;7.80;;
3547;SDS011;1788;49.400;11.092;2023-06-22T00:13:38;8.20;;;7.00;;
3547;SDS011;1788;49.400;11.092;2023-06-22T00:16:04;9.27;;;7.87;;
3547;SDS011;1788;49.400;11.092;2023-06-22T00:18:31;13.03;;;8.23;;
3547;SDS011;1788;49.400;11.092;2023-06-22T00:20:59;11.60;;;7.97;;
3547;SDS011;1788;49.400;11.092;2023-06-22T00:23:25;11.43;;;7.67;;
3547;SDS011;1788;49.400;11.092;2023-06-22T00:25:51;12.07;;;7.33;;
3547;SDS011;1788;49.400;11.092;2023-06-22T00:28:19;11.20;;;7.87;;
3547;SDS011;1788;49.400;11.092;2023-06-22T00:30:45;10.73;;;8.10;;
3547;SDS011;1788;49.400;11.092;2023-06-22T00:33:12;10.13;;;7.40;;
3547;SDS011;1788;49.400;11.092;2023-06-22T00:35:39;9.30;;;7.43;;
3547;SDS011;1788;49.400;11.092;2023-06-22T00:38:05;12.17;;;7.93;;
3547;SDS011;1788;49.400;11.092;2023-06-22T00:40:32;9.97;;;7.70;;
3547;SDS011;1788;49.400;11.092;2023-06-22T00:42:59;10.43;;;8.17;;
3547;SDS011;1788;49.400;11.092;2023-06-22T00:45:26;14.63;;;9.27;;
3547;SDS011;1788;49.400;11.092;2023-06-22T00:47:55;11.33;;;8.13;;
3547;SDS011;1788;49.400;11.092;2023-06-22T00:50:21;12.03;;;8.47;;
3547;SDS011;1788;49.400;11.092;2023-06-22T00:52:48;11.57;;;8.43;;
3547;SDS011;1788;49.400;11.092;2023-06-22T00:55:14;12.20;;;8.37;;
3547;SDS011;1788;49.400;11.092;2023-06-22T00:57:40;11.27;;;8.60;;
3547;SDS011;1788;49.400;11.092;2023-06-22T01:00:07;10.53;;;8.07;;
3547;SDS011;1788;49.400;11.092;2023-06-22T01:02:34;10.97;;;9.20;;
3547;SDS011;1788;49.400;11.092;2023-06-22T01:05:01;9.00;;;7.70;;
3547;SDS011;1788;49.400;11.092;2023-06-22T01:09:57;12.60;;;8.40;;
3547;SDS011;1788;49.400;11.092;2023-06-22T01:12:21;12.63;;;8.17;;
3547;SDS011;1788;49.400;11.092;2023-06-22T01:14:50;12.03;;;8.47;;
3547;SDS011;1788;49.400;11.092;2023-06-22T01:17:14;10.17;;;8.53;;
3547;SDS011;1788;49.400;11.092;2023-06-22T01:22:08;9.70;;;8.07;;
3547;SDS011;1788;49.400;11.092;2023-06-22T01:29:30;12.67;;;8.97;;
3547;SDS011;1788;49.400;11.092;2023-06-22T01:31:56;12.33;;;8.13;;
3547;SDS011;1788;49.400;11.092;2023-06-22T01:34:24;11.47;;;9.63;;
3547;SDS011;1788;49.400;11.092;2023-06-22T01:36:51;11.10;;;8.50;;
3547;SDS011;1788;49.400;11.092;2023-06-22T01:39:18;13.87;;;9.00;;
3547;SDS011;1788;49.400;11.092;2023-06-22T01:41:44;11.37;;;8.30;;
3547;SDS011;1788;49.400;11.092;2023-06-22T01:44:11;12.90;;;9.23;;
3547;SDS011;1788;49.400;11.092;2023-06-22T01:46:37;11.33;;;9.53;;
3547;SDS011;1788;49.400;11.092;2023-06-22T01:49:04;11.43;;;8.70;;
3547;SDS011;1788;49.400;11.092;2023-06-22T01:51:31;9.00;;;8.13;;
3547;SDS011;1788;49.400;11.092;2023-06-22T01:53:57;12.77;;;8.93;;
3547;SDS011;1788;49.400;11.092;2023-06-22T01:56:24;11.30;;;8.37;;
3547;SDS011;1788;49.400;11.092;2023-06-22T01:58:53;10.90;;;8.20;;
3547;SDS011;1788;49.400;11.092;2023-06-22T02:01:20;11.63;;;8.57;;
3547;SDS011;1788;49.400;11.092;2023-06-22T02:03:46;10.03;;;8.00;;
3547;SDS011;1788;49.400;11.092;2023-06-22T02:11:06;9.10;;;7.53;;
3547;SDS011;1788;49.400;11.092;2023-06-22T02:13:33;13.27;;;8.37;;
3547;SDS011;1788;49.400;11.092;2023-06-22T02:16:00;8.63;;;7.60;;
3547;SDS011;1788;49.400;11.092;2023-06-22T02:18:26;10.87;;;8.10;;
3547;SDS011;1788;49.400;11.092;2023-06-22T02:20:54;9.67;;;8.30;;
3547;SDS011;1788;49.400;11.092;2023-06-22T02:23:21;13.33;;;8.30;;
3547;SDS011;1788;49.400;11.092;2023-06-22T02:25:48;11.73;;;8.53;;
3547;SDS011;1788;49.400;11.092;2023-06-22T02:28:15;12.13;;;8.80;;
3547;SDS011;1788;49.400;11.092;2023-06-22T02:30:42;13.47;;;8.40;;
3547;SDS011;1788;49.400;11.092;2023-06-22T02:33:08;9.00;;;7.03;;
3547;SDS011;1788;49.400;11.092;2023-06-22T02:35:36;10.67;;;7.87;;
3547;SDS011;1788;49.400;11.092;2023-06-22T02:38:03;13.60;;;8.13;;
3547;SDS011;1788;49.400;11.092;2023-06-22T02:40:29;11.07;;;7.80;;
3547;SDS011;1788;49.400;11.092;2023-06-22T02:42:56;10.23;;;7.80;;
3547;SDS011;1788;49.400;11.092;2023-06-22T02:45:22;13.97;;;9.40;;
3547;SDS011;1788;49.400;11.092;2023-06-22T02:47:49;10.37;;;8.53;;
3547;SDS011;1788;49.400;11.092;2023-06-22T02:50:15;13.47;;;8.50;;
3547;SDS011;1788;49.400;11.092;2023-06-22T02:52:42;11.20;;;8.50;;
3547;SDS011;1788;49.400;11.092;2023-06-22T02:55:09;11.60;;;8.20;;
3547;SDS011;1788;49.400;11.092;2023-06-22T02:57:36;10.80;;;8.70;;
3547;SDS011;1788;49.400;11.092;2023-06-22T03:00:03;12.77;;;9.13;;
3547;SDS011;1788;49.400;11.092;2023-06-22T03:02:30;13.40;;;9.27;;
3547;SDS011;1788;49.400;11.092;2023-06-22T03:04:57;13.23;;;9.73;;
3547;SDS011;1788;49.400;11.092;2023-06-22T03:07:24;13.37;;;9.87;;
3547;SDS011;1788;49.400;11.092;2023-06-22T03:09:51;12.33;;;9.63;;
3547;SDS011;1788;49.400;11.092;2023-06-22T03:12:18;15.67;;;9.07;;
3547;SDS011;1788;49.400;11.092;2023-06-22T03:14:45;12.00;;;9.30;;
3547;SDS011;1788;49.400;11.092;2023-06-22T03:17:12;13.73;;;9.73;;
3547;SDS011;1788;49.400;11.092;2023-06-22T03:19:39;14.27;;;8.63;;
3547;SDS011;1788;49.400;11.092;2023-06-22T03:22:06;12.93;;;8.83;;
3547;SDS011;1788;49.400;11.092;2023-06-22T03:24:32;11.23;;;8.57;;
3547;SDS011;1788;49.400;11.092;2023-06-22T03:26:59;11.20;;;9.00;;
3547;SDS011;1788;49.400;11.092;2023-06-22T03:29:26;11.87;;;8.97;;
3547;SDS011;1788;49.400;11.092;2023-06-22T03:31:52;11.80;;;8.10;;
3547;SDS011;1788;49.400;11.092;2023-06-22T03:34:19;12.10;;;8.33;;
3547;SDS011;1788;49.400;11.092;2023-06-22T03:36:46;10.33;;;8.57;;
3547;SDS011;1788;49.400;11.092;2023-06-22T03:39:12;11.27;;;8.07;;
3547;SDS011;1788;49.400;11.092;2023-06-22T03:41:40;13.13;;;8.57;;
3547;SDS011;1788;49.400;11.092;2023-06-22T03:44:06;11.10;;;8.67;;
3547;SDS011;1788;49.400;11.092;2023-06-22T03:46:34;11.37;;;8.40;;
3547;SDS011;1788;49.400;11.092;2023-06-22T03:49:00;13.20;;;8.57;;
3547;SDS011;1788;49.400;11.092;2023-06-22T03:51:28;12.13;;;8.50;;
3547;SDS011;1788;49.400;11.092;2023-06-22T03:53:54;13.37;;;8.20;;
3547;SDS011;1788;49.400;11.092;2023-06-22T03:56:22;11.30;;;8.20;;
3547;SDS011;1788;49.400;11.092;2023-06-22T03:58:48;11.27;;;8.97;;
3547;SDS011;1788;49.400;11.092;2023-06-22T04:01:16;11.23;;;8.63;;
3547;SDS011;1788;49.400;11.092;2023-06-22T04:03:42;12.63;;;9.37;;
3547;SDS011;1788;49.400;11.092;2023-06-22T04:06:09;14.47;;;9.03;;
3547;SDS011;1788;49.400;11.092;2023-06-22T04:08:36;16.10;;;9.20;;
3547;SDS011;1788;49.400;11.092;2023-06-22T04:11:02;13.53;;;8.93;;
3547;SDS011;1788;49.400;11.092;2023-06-22T04:13:29;12.43;;;8.90;;
3547;SDS011;1788;49.400;11.092;2023-06-22T04:15:56;12.23;;;8.23;;
3547;SDS011;1788;49.400;11.092;2023-06-22T04:18:22;11.83;;;8.10;;
3547;SDS011;1788;49.400;11.092;2023-06-22T04:20:49;12.57;;;9.27;;
3547;SDS011;1788;49.400;11.092;2023-06-22T04:23:16;11.83;;;8.80;;
3547;SDS011;1788;49.400;11.092;2023-06-22T04:25:42;11.60;;;8.83;;
3547;SDS011;1788;49.400;11.092;2023-06-22T04:28:09;13.97;;;9.37;;
3547;SDS011;1788;49.400;11.092;2023-06-22T04:30:35;13.07;;;9.40;;
3547;SDS011;1788;49.400;11.092;2023-06-22T04:33:03;10.67;;;8.30;;
3547;SDS011;1788;49.400;11.092;2023-06-22T04:35:29;14.83;;;9.50;;
3547;SDS011;1788;49.400;11.092;2023-06-22T04:37:57;11.03;;;8.40;;
3547;SDS011;1788;49.400;11.092;2023-06-22T04:40:23;16.50;;;9.63;;
3547;SDS011;1788;49.400;11.092;2023-06-22T04:42:51;13.47;;;8.57;;
3547;SDS011;1788;49.400;11.092;2023-06-22T04:45:17;13.40;;;9.23;;
3547;SDS011;1788;49.400;11.092;2023-06-22T04:47:44;13.07;;;9.20;;
3547;SDS011;1788;49.400;11.092;2023-06-22T04:50:11;13.87;;;9.00;;
3547;SDS011;1788;49.400;11.092;2023-06-22T04:52:37;9.90;;;8.50;;
3547;SDS011;1788;49.400;11.092;2023-06-22T04:55:04;14.27;;;9.00;;
3547;SDS011;1788;49.400;11.092;2023-06-22T04:57:31;13.47;;;9.40;;
3547;SDS011;1788;49.400;11.092;2023-06-22T04:59:58;14.17;;;9.83;;
3547;SDS011;1788;49.400;11.092;2023-06-22T05:02:24;12.43;;;9.13;;
3547;SDS011;1788;49.400;11.092;2023-06-22T05:04:51;12.60;;;9.30;;
3547;SDS011;1788;49.400;11.092;2023-06-22T05:07:18;15.30;;;10.43;;
3547;SDS011;1788;49.400;11.092;2023-06-22T05:09:45;12.73;;;9.10;;
3547;SDS011;1788;49.400;11.092;2023-06-22T05:12:12;13.77;;;9.47;;
3547;SDS011;1788;49.400;11.092;2023-06-22T05:14:39;11.97;;;9.47;;
3547;SDS011;1788;49.400;11.092;2023-06-22T05:17:06;14.73;;;9.73;;
3547;SDS011;1788;49.400;11.092;2023-06-22T05:19:33;15.63;;;10.07;;
3547;SDS011;1788;49.400;11.092;2023-06-22T05:22:00;11.47;;;9.20;;
3547;SDS011;1788;49.400;11.092;2023-06-22T05:24:27;14.00;;;9.53;;
3547;SDS011;1788;49.400;11.092;2023-06-22T05:26:53;14.80;;;9.07;;
3547;SDS011;1788;49.400;11.092;2023-06-22T05:29:20;13.27;;;9.13;;
3547;SDS011;1788;49.400;11.092;2023-06-22T05:31:47;12.93;;;8.73;;
3547;SDS011;1788;49.400;11.092;2023-06-22T05:34:14;10.17;;;8.27;;
3547;SDS011;1788;49.400;11.092;2023-06-22T05:36:42;12.27;;;8.50;;
3547;SDS011;1788;49.400;11.092;2023-06-22T05:41:36;13.73;;;9.37;;
3547;SDS011;1788;49.400;11.092;2023-06-22T05:44:02;14.37;;;9.80;;
3547;SDS011;1788;49.400;11.092;2023-06-22T05:46:30;11.80;;;8.77;;
3547;SDS011;1788;49.400;11.092;2023-06-22T05:48:56;11.20;;;8.30;;
3547;SDS011;1788;49.400;11.092;2023-06-22T05:51:24;12.40;;;8.90;;
3547;SDS011;1788;49.400;11.092;2023-06-22T05:53:50;13.97;;;9.47;;
3547;SDS011;1788;49.400;11.092;2023-06-22T05:56:18;11.10;;;8.63;;
3547;SDS011;1788;49.400;11.092;2023-06-22T05:58:45;12.10;;;8.97;;
3547;SDS011;1788;49.400;11.092;2023-06-22T06:01:11;10.67;;;8.07;;
3547;SDS011;1788;49.400;11.092;2023-06-22T06:03:38;12.03;;;9.17;;
3547;SDS011;1788;49.400;11.092;2023-06-22T06:06:05;10.77;;;8.50;;
3547;SDS011;1788;49.400;11.092;2023-06-22T06:08:32;12.70;;;8.37;;
3547;SDS011;1788;49.400;11.092;2023-06-22T06:10:59;10.40;;;8.00;;
3547;SDS011;1788;49.400;11.092;2023-06-22T06:13:26;10.07;;;7.97;;
3547;SDS011;1788;49.400;11.092;2023-06-22T06:15:53;12.93;;;8.17;;
3547;SDS011;1788;49.400;11.092;2023-06-22T06:18:20;12.10;;;8.23;;
3547;SDS011;1788;49.400;11.092;2023-06-22T06:20:47;11.97;;;8.13;;
3547;SDS011;1788;49.400;11.092;2023-06-22T06:23:13;13.57;;;8.40;;
3547;SDS011;1788;49.400;11.092;2023-06-22T06:25:40;10.17;;;8.40;;
3547;SDS011;1788;49.400;11.092;2023-06-22T06:28:07;10.17;;;7.73;;
3547;SDS011;1788;49.400;11.092;2023-06-22T06:30:33;11.03;;;7.70;;
3547;SDS011;1788;49.400;11.092;2023-06-22T06:33:00;11.63;;;7.60;;
3547;SDS011;1788;49.400;11.092;2023-06-22T06:35:26;9.07;;;7.70;;
3547;SDS011;1788;49.400;11.092;2023-06-22T06:37:53;14.50;;;8.00;;
3547;SDS011;1788;49.400;11.092;2023-06-22T06:40:20;9.53;;;8.10;;
3547;SDS011;1788;49.400;11.092;2023-06-22T06:42:48;11.43;;;8.30;;
3547;SDS011;1788;49.400;11.092;2023-06-22T06:47:41;8.63;;;7.13;;
3547;SDS011;1788;49.400;11.092;2023-06-22T06:50:09;10.13;;;7.70;;
3547;SDS011;1788;49.400;11.092;2023-06-22T06:52:35;9.13;;;7.23;;
3547;SDS011;1788;49.400;11.092;2023-06-22T06:55:02;11.30;;;7.80;;
3547;SDS011;1788;49.400;11.092;2023-06-22T06:57:30;9.73;;;8.00;;
3547;SDS011;1788;49.400;11.092;2023-06-22T06:59:57;11.60;;;7.33;;
3547;SDS011;1788;49.400;11.092;2023-06-22T07:02:25;10.97;;;7.37;;
3547;SDS011;1788;49.400;11.092;2023-06-22T07:04:51;9.33;;;6.77;;
3547;SDS011;1788;49.400;11.092;2023-06-22T07:07:17;9.57;;;6.93;;
3547;SDS011;1788;49.400;11.092;2023-06-22T07:09:44;8.13;;;6.97;;
3547;SDS011;1788;49.400;11.092;2023-06-22T07:12:11;8.67;;;6.87;;
3547;SDS011;1788;49.400;11.092;2023-06-22T07:14:38;6.87;;;6.23;;
3547;SDS011;1788;49.400;11.092;2023-06-22T07:17:05;7.57;;;6.27;;
3547;SDS011;1788;49.400;11.092;2023-06-22T07:19:32;7.30;;;6.47;;
3547;SDS011;1788;49.400;11.092;2023-06-22T07:21:59;8.37;;;6.23;;
3547;SDS011;1788;49.400;11.092;2023-06-22T07:24:26;8.83;;;6.40;;
3547;SDS011;1788;49.400;11.092;2023-06-22T07:26:53;6.60;;;5.80;;
3547;SDS011;1788;49.400;11.092;2023-06-22T07:29:20;12.17;;;6.30;;
3547;SDS011;1788;49.400;11.092;2023-06-22T07:31:46;7.00;;;6.03;;
3547;SDS011;1788;49.400;11.092;2023-06-22T07:34:13;7.67;;;6.13;;
3547;SDS011;1788;49.400;11.092;2023-06-22T07:36:40;8.23;;;6.20;;
3547;SDS011;1788;49.400;11.092;2023-06-22T07:39:07;6.93;;;5.77;;
3547;SDS011;1788;49.400;11.092;2023-06-22T07:41:34;8.93;;;6.27;;
3547;SDS011;1788;49.400;11.092;2023-06-22T07:44:02;9.10;;;6.77;;
3547;SDS011;1788;49.400;11.092;2023-06-22T07:46:28;6.30;;;5.37;;
3547;SDS011;1788;49.400;11.092;2023-06-22T07:48:55;7.00;;;6.60;;
3547;SDS011;1788;49.400;11.092;2023-06-22T07:51:21;6.13;;;5.30;;
3547;SDS011;1788;49.400;11.092;2023-06-22T07:53:48;8.27;;;5.60;;
3547;SDS011;1788;49.400;11.092;2023-06-22T07:56:14;6.13;;;5.70;;
3547;SDS011;1788;49.400;11.092;2023-06-22T07:58:41;7.93;;;6.47;;
3547;SDS011;1788;49.400;11.092;2023-06-22T08:01:08;7.17;;;5.37;;
3547;SDS011;1788;49.400;11.092;2023-06-22T08:03:36;6.77;;;5.50;;
3547;SDS011;1788;49.400;11.092;2023-06-22T08:06:03;8.67;;;6.53;;
3547;SDS011;1788;49.400;11.092;2023-06-22T08:08:30;9.50;;;6.03;;
3547;SDS011;1788;49.400;11.092;2023-06-22T08:10:56;6.03;;;5.57;;
3547;SDS011;1788;49.400;11.092;2023-06-22T08:13:24;6.73;;;5.43;;
3547;SDS011;1788;49.400;11.092;2023-06-22T08:15:51;8.43;;;5.70;;
3547;SDS011;1788;49.400;11.092;2023-06-22T08:18:18;6.57;;;5.07;;
3547;SDS011;1788;49.400;11.092;2023-06-22T08:20:44;6.03;;;5.50;;
3547;SDS011;1788;49.400;11.092;2023-06-22T08:23:11;7.83;;;5.63;;
3547;SDS011;1788;49.400;11.092;2023-06-22T08:25:38;6.50;;;5.53;;
3547;SDS011;1788;49.400;11.092;2023-06-22T08:28:05;8.43;;;5.77;;
3547;SDS011;1788;49.400;11.092;2023-06-22T08:30:32;6.87;;;5.40;;
3547;SDS011;1788;49.400;11.092;2023-06-22T08:32:59;7.33;;;5.60;;
3547;SDS011;1788;49.400;11.092;2023-06-22T08:35:26;8.23;;;5.33;;
3547;SDS011;1788;49.400;11.092;2023-06-22T08:37:53;6.13;;;4.87;;
3547;SDS011;1788;49.400;11.092;2023-06-22T08:40:20;8.87;;;5.53;;
3547;SDS011;1788;49.400;11.092;2023-06-22T08:42:46;8.47;;;5.93;;
3547;SDS011;1788;49.400;11.092;2023-06-22T08:45:13;9.17;;;6.30;;
3547;SDS011;1788;49.400;11.092;2023-06-22T08:47:40;5.30;;;4.40;;
3547;SDS011;1788;49.400;11.092;2023-06-22T08:50:07;7.93;;;5.30;;
3547;SDS011;1788;49.400;11.092;2023-06-22T08:52:33;5.73;;;5.40;;
3547;SDS011;1788;49.400;11.092;2023-06-22T08:55:00;7.73;;;5.27;;
3547;SDS011;1788;49.400;11.092;2023-06-22T08:57:27;5.47;;;4.90;;
3547;SDS011;1788;49.400;11.092;2023-06-22T08:59:53;8.00;;;4.97;;
3547;SDS011;1788;49.400;11.092;2023-06-22T09:02:20;5.90;;;5.07;;
3547;SDS011;1788;49.400;11.092;2023-06-22T09:04:47;6.70;;;5.27;;
3547;SDS011;1788;49.400;11.092;2023-06-22T09:07:13;6.93;;;5.70;;
3547;SDS011;1788;49.400;11.092;2023-06-22T09:09:40;6.40;;;5.40;;
3547;SDS011;1788;49.400;11.092;2023-06-22T09:12:07;8.03;;;5.33;;
3547;SDS011;1788;49.400;11.092;2023-06-22T09:14:34;6.80;;;5.47;;
3547;SDS011;1788;49.400;11.092;2023-06-22T09:17:01;7.13;;;5.00;;
3547;SDS011;1788;49.400;11.092;2023-06-22T09:19:28;7.03;;;5.30;;
3547;SDS011;1788;49.400;11.092;2023-06-22T09:21:54;7.80;;;5.63;;
3547;SDS011;1788;49.400;11.092;2023-06-22T09:24:21;6.33;;;5.50;;
3547;SDS011;1788;49.400;11.092;2023-06-22T09:26:47;8.90;;;5.80;;
3547;SDS011;1788;49.400;11.092;2023-06-22T09:29:15;6.13;;;4.87;;
3547;SDS011;1788;49.400;11.092;2023-06-22T09:31:41;7.27;;;5.70;;
3547;SDS011;1788;49.400;11.092;2023-06-22T09:34:09;7.20;;;5.13;;
3547;SDS011;1788;49.400;11.092;2023-06-22T09:36:35;6.60;;;5.07;;
3547;SDS011;1788;49.400;11.092;2023-06-22T09:39:03;9.40;;;5.97;;
3547;SDS011;1788;49.400;11.092;2023-06-22T09:41:29;6.77;;;5.50;;
3547;SDS011;1788;49.400;11.092;2023-06-22T09:43:57;9.40;;;6.07;;
3547;SDS011;1788;49.400;11.092;2023-06-22T09:46:24;6.87;;;6.03;;
3547;SDS011;1788;49.400;11.092;2023-06-22T09:48:51;6.03;;;5.73;;
3547;SDS011;1788;49.400;11.092;2023-06-22T09:51:17;6.40;;;5.53;;
3547;SDS011;1788;49.400;11.092;2023-06-22T09:53:44;6.93;;;5.60;;
3547;SDS011;1788;49.400;11.092;2023-06-22T09:56:10;5.47;;;5.17;;
3547;SDS011;1788;49.400;11.092;2023-06-22T09:58:38;7.97;;;5.57;;
3547;SDS011;1788;49.400;11.092;2023-06-22T10:01:04;5.63;;;4.83;;
3547;SDS011;1788;49.400;11.092;2023-06-22T10:03:31;7.40;;;5.80;;
3547;SDS011;1788;49.400;11.092;2023-06-22T10:05:58;7.57;;;5.57;;
3547;SDS011;1788;49.400;11.092;2023-06-22T10:08:25;7.87;;;5.73;;
3547;SDS011;1788;49.400;11.092;2023-06-22T10:10:53;7.63;;;6.40;;
3547;SDS011;1788;49.400;11.092;2023-06-22T10:13:20;9.93;;;6.20;;
3547;SDS011;1788;49.400;11.092;2023-06-22T10:15:47;5.73;;;5.43;;
3547;SDS011;1788;49.400;11.092;2023-06-22T10:18:13;8.20;;;5.40;;
3547;SDS011;1788;49.400;11.092;2023-06-22T10:20:40;8.37;;;5.63;;
3547;SDS011;1788;49.400;11.092;2023-06-22T10:23:07;10.67;;;6.73;;
3547;SDS011;1788;49.400;11.092;2023-06-22T10:25:34;8.97;;;6.53;;
3547;SDS011;1788;49.400;11.092;2023-06-22T10:28:01;7.67;;;5.87;;
3547;SDS011;1788;49.400;11.092;2023-06-22T10:30:28;8.43;;;5.77;;
3547;SDS011;1788;49.400;11.092;2023-06-22T10:32:54;7.63;;;5.70;;
3547;SDS011;1788;49.400;11.092;2023-06-22T10:35:22;8.50;;;6.23;;
3547;SDS011;1788;49.400;11.092;2023-06-22T10:37:48;8.30;;;6.30;;
3547;SDS011;1788;49.400;11.092;2023-06-22T10:40:16;8.10;;;5.90;;
3547;SDS011;1788;49.400;11.092;2023-06-22T10:42:42;9.00;;;6.13;;
3547;SDS011;1788;49.400;11.092;2023-06-22T10:45:09;7.80;;;6.37;;
3547;SDS011;1788;49.400;11.092;2023-06-22T10:47:36;13.07;;;6.40;;
3547;SDS011;1788;49.400;11.092;2023-06-22T10:50:02;10.33;;;5.77;;
3547;SDS011;1788;49.400;11.092;2023-06-22T10:52:30;6.83;;;5.93;;
3547;SDS011;1788;49.400;11.092;2023-06-22T10:54:56;9.70;;;6.43;;
3547;SDS011;1788;49.400;11.092;2023-06-22T10:57:23;7.17;;;5.90;;
3547;SDS011;1788;49.400;11.092;2023-06-22T10:59:50;8.13;;;6.22;;
3547;SDS011;1788;49.400;11.092;2023-06-22T11:02:17;8.02;;;5.65;;
3547;SDS011;1788;49.400;11.092;2023-06-22T11:04:43;9.43;;;7.43;;
3547;SDS011;1788;49.400;11.092;2023-06-22T11:07:10;9.27;;;6.25;;
3547;SDS011;1788;49.400;11.092;2023-06-22T11:09:37;10.47;;;5.63;;
3547;SDS011;1788;49.400;11.092;2023-06-22T11:12:03;5.60;;;5.30;;
3547;SDS011;1788;49.400;11.092;2023-06-22T11:14:30;10.50;;;6.57;;
3547;SDS011;1788;49.400;11.092;2023-06-22T11:16:57;9.18;;;6.07;;
3547;SDS011;1788;49.400;11.092;2023-06-22T11:19:23;7.82;;;6.35;;
3547;SDS011;1788;49.400;11.092;2023-06-22T11:21:50;7.97;;;5.60;;
3547;SDS011;1788;49.400;11.092;2023-06-22T11:24:16;8.57;;;5.50;;
3547;SDS011;1788;49.400;11.092;2023-06-22T11:26:43;8.70;;;5.50;;
3547;SDS011;1788;49.400;11.092;2023-06-22T11:29:10;9.68;;;5.55;;
3547;SDS011;1788;49.400;11.092;2023-06-22T11:31:37;7.03;;;5.72;;
3547;SDS011;1788;49.400;11.092;2023-06-22T11:34:04;7.97;;;5.97;;
3547;SDS011;1788;49.400;11.092;2023-06-22T11:36:30;7.40;;;5.45;;
3547;SDS011;1788;49.400;11.092;2023-06-22T11:38:57;8.02;;;6.43;;
3547;SDS011;1788;49.400;11.092;2023-06-22T11:41:24;6.47;;;6.07;;
3547;SDS011;1788;49.400;11.092;2023-06-22T11:43:51;6.43;;;5.40;;
3547;SDS011;1788;49.400;11.092;2023-06-22T11:46:17;9.50;;;6.53;;
3547;SDS011;1788;49.400;11.092;2023-06-22T11:48:44;8.20;;;5.55;;
3547;SDS011;1788;49.400;11.092;2023-06-22T11:51:11;9.90;;;6.15;;
3547;SDS011;1788;49.400;11.092;2023-06-22T11:53:39;9.15;;;5.97;;
3547;SDS011;1788;49.400;11.092;2023-06-22T11:56:07;8.70;;;6.37;;
3547;SDS011;1788;49.400;11.092;2023-06-22T11:58:34;6.28;;;5.60;;
3547;SDS011;1788;49.400;11.092;2023-06-22T12:01:04;7.87;;;6.28;;
3547;SDS011;1788;49.400;11.092;2023-06-22T12:03:31;9.65;;;6.10;;
3547;SDS011;1788;49.400;11.092;2023-06-22T12:05:57;9.30;;;5.90;;
3547;SDS011;1788;49.400;11.092;2023-06-22T12:08:24;7.43;;;5.80;;
3547;SDS011;1788;49.400;11.092;2023-06-22T12:10:51;8.40;;;5.75;;
3547;SDS011;1788;49.400;11.092;2023-06-22T12:13:17;9.90;;;6.12;;
3547;SDS011;1788;49.400;11.092;2023-06-22T12:15:44;10.75;;;6.50;;
3547;SDS011;1788;49.400;11.092;2023-06-22T12:18:11;7.93;;;6.65;;
3547;SDS011;1788;49.400;11.092;2023-06-22T12:20:37;8.70;;;6.25;;
3547;SDS011;1788;49.400;11.092;2023-06-22T12:23:04;9.15;;;6.25;;
3547;SDS011;1788;49.400;11.092;2023-06-22T12:25:30;6.75;;;6.28;;
3547;SDS011;1788;49.400;11.092;2023-06-22T12:27:57;9.15;;;6.80;;
3547;SDS011;1788;49.400;11.092;2023-06-22T12:30:24;8.75;;;6.57;;
3547;SDS011;1788;49.400;11.092;2023-06-22T12:32:51;8.23;;;6.10;;
3547;SDS011;1788;49.400;11.092;2023-06-22T12:35:18;8.88;;;5.87;;
3547;SDS011;1788;49.400;11.092;2023-06-22T12:37:44;7.93;;;6.28;;
3547;SDS011;1788;49.400;11.092;2023-06-22T12:40:11;8.40;;;6.10;;
3547;SDS011;1788;49.400;11.092;2023-06-22T12:42:39;6.90;;;6.00;;
3547;SDS011;1788;49.400;11.092;2023-06-22T12:47:34;8.82;;;6.03;;
3547;SDS011;1788;49.400;11.092;2023-06-22T12:50:01;8.50;;;6.25;;
3547;SDS011;1788;49.400;11.092;2023-06-22T12:52:29;11.98;;;6.70;;
3547;SDS011;1788;49.400;11.092;2023-06-22T12:54:54;10.43;;;6.28;;
3547;SDS011;1788;49.400;11.092;2023-06-22T12:57:21;12.13;;;7.10;;
3547;SDS011;1788;49.400;11.092;2023-06-22T12:59:47;9.07;;;6.35;;
3547;SDS011;1788;49.400;11.092;2023-06-22T13:02:14;8.27;;;6.72;;
3547;SDS011;1788;49.400;11.092;2023-06-22T13:04:41;11.57;;;6.70;;
3547;SDS011;1788;49.400;11.092;2023-06-22T13:07:08;8.10;;;5.45;;
3547;SDS011;1788;49.400;11.092;2023-06-22T13:09:36;9.00;;;6.45;;
3547;SDS011;1788;49.400;11.092;2023-06-22T13:12:01;7.53;;;6.03;;
3547;SDS011;1788;49.400;11.092;2023-06-22T13:14:28;10.70;;;6.75;;
3547;SDS011;1788;49.400;11.092;2023-06-22T13:16:55;10.38;;;6.55;;
3547;SDS011;1788;49.400;11.092;2023-06-22T13:19:21;10.98;;;7.78;;
3547;SDS011;1788;49.400;11.092;2023-06-22T13:21:48;6.10;;;5.70;;
3547;SDS011;1788;49.400;11.092;2023-06-22T13:24:15;7.68;;;6.85;;
3547;SDS011;1788;49.400;11.092;2023-06-22T13:26:41;7.10;;;6.03;;
3547;SDS011;1788;49.400;11.092;2023-06-22T13:29:08;8.93;;;6.20;;
3547;SDS011;1788;49.400;11.092;2023-06-22T13:31:35;9.95;;;7.50;;
3547;SDS011;1788;49.400;11.092;2023-06-22T13:34:02;11.10;;;6.72;;
3547;SDS011;1788;49.400;11.092;2023-06-22T13:36:28;10.65;;;6.72;;
3547;SDS011;1788;49.400;11.092;2023-06-22T13:38:55;6.93;;;6.12;;
3547;SDS011;1788;49.400;11.092;2023-06-22T13:41:22;8.05;;;6.00;;
3547;SDS011;1788;49.400;11.092;2023-06-22T13:43:48;10.73;;;6.82;;
3547;SDS011;1788;49.400;11.092;2023-06-22T13:46:15;10.65;;;6.30;;
3547;SDS011;1788;49.400;11.092;2023-06-22T13:48:42;9.88;;;6.40;;
3547;SDS011;1788;49.400;11.092;2023-06-22T13:51:08;8.88;;;6.03;;
3547;SDS011;1788;49.400;11.092;2023-06-22T13:53:35;12.23;;;6.97;;
3547;SDS011;1788;49.400;11.092;2023-06-22T13:56:02;9.93;;;7.03;;
3547;SDS011;1788;49.400;11.092;2023-06-22T13:58:28;10.18;;;6.93;;
3547;SDS011;1788;49.400;11.092;2023-06-22T14:00:55;9.20;;;6.70;;
3547;SDS011;1788;49.400;11.092;2023-06-22T14:03:21;8.98;;;7.28;;
3547;SDS011;1788;49.400;11.092;2023-06-22T14:05:48;10.77;;;7.12;;
3547;SDS011;1788;49.400;11.092;2023-06-22T14:08:15;9.70;;;6.65;;
3547;SDS011;1788;49.400;11.092;2023-06-22T14:10:41;10.35;;;5.95;;
3547;SDS011;1788;49.400;11.092;2023-06-22T14:13:08;7.97;;;5.50;;
3547;SDS011;1788;49.400;11.092;2023-06-22T14:15:35;8.55;;;5.68;;
3547;SDS011;1788;49.400;11.092;2023-06-22T14:18:02;6.75;;;6.22;;
3547;SDS011;1788;49.400;11.092;2023-06-22T14:20:29;8.68;;;6.10;;
3547;SDS011;1788;49.400;11.092;2023-06-22T14:22:55;8.23;;;6.20;;
3547;SDS011;1788;49.400;11.092;2023-06-22T14:25:22;9.65;;;6.57;;
3547;SDS011;1788;49.400;11.092;2023-06-22T14:27:49;9.60;;;6.22;;
3547;SDS011;1788;49.400;11.092;2023-06-22T14:30:15;10.77;;;6.85;;
3547;SDS011;1788;49.400;11.092;2023-06-22T14:32:43;6.82;;;6.45;;
3547;SDS011;1788;49.400;11.092;2023-06-22T14:35:08;8.93;;;7.18;;
3547;SDS011;1788;49.400;11.092;2023-06-22T14:37:35;10.80;;;7.45;;
3547;SDS011;1788;49.400;11.092;2023-06-22T14:40:02;9.93;;;6.05;;
3547;SDS011;1788;49.400;11.092;2023-06-22T14:42:28;8.85;;;6.32;;
3547;SDS011;1788;49.400;11.092;2023-06-22T14:44:55;7.82;;;5.40;;
3547;SDS011;1788;49.400;11.092;2023-06-22T14:47:22;8.77;;;6.05;;
3547;SDS011;1788;49.400;11.092;2023-06-22T14:49:48;7.55;;;6.15;;
3547;SDS011;1788;49.400;11.092;2023-06-22T14:52:15;9.35;;;6.47;;
3547;SDS011;1788;49.400;11.092;2023-06-22T14:54:42;10.27;;;6.45;;
3547;SDS011;1788;49.400;11.092;2023-06-22T14:57:09;14.55;;;7.25;;
3547;SDS011;1788;49.400;11.092;2023-06-22T14:59:36;11.65;;;6.43;;
3547;SDS011;1788;49.400;11.092;2023-06-22T15:02:03;9.63;;;5.97;;
3547;SDS011;1788;49.400;11.092;2023-06-22T15:04:30;8.20;;;5.57;;
3547;SDS011;1788;49.400;11.092;2023-06-22T15:06:56;9.85;;;6.18;;
3547;SDS011;1788;49.400;11.092;2023-06-22T15:09:23;11.98;;;6.07;;
3547;SDS011;1788;49.400;11.092;2023-06-22T15:11:50;9.35;;;6.75;;
3547;SDS011;1788;49.400;11.092;2023-06-22T15:14:16;11.30;;;6.32;;